sensor_id;sensor_type;location;lat;lon;timestamp;P1;durP1;ratioP1;P2;durP2;ratioP2
10410;SDS011;5251;52.112;8.606;2023-04-27T00:02:09;5.93;;;3.72;;
10410;SDS011;5251;52.112;8.606;2023-04-27T00:04:35;5.00;;;3.97;;
10410;SDS011;5251;52.112;8.606;2023-04-27T00:07:01;6.35;;;4.30;;
10410;SDS011;5251;52.112;8.606;2023-04-27T00:09:27;5.78;;;3.80;;
10410;SDS011;5251;52.112;8.606;2023-04-27T00:11:53;4.63;;;3.60;;
10410;SDS011;5251;52.112;8.606;2023-04-27T00:14:18;6.03;;;3.97;;
10410;SDS011;5251;52.112;8.606;2023-04-27T00:16:45;5.93;;;4.22;;
10410;SDS011;5251;52.112;8.606;2023-04-27T00:19:10;6.78;;;3.97;;
10410;SDS011;5251;52.112;8.606;2023-04-27T00:21:37;5.85;;;4.30;;
10410;SDS011;5251;52.112;8.606;2023-04-27T00:24:03;7.57;;;3.90;;
10410;SDS011;5251;52.112;8.606;2023-04-27T00:26:29;4.70;;;3.60;;
10410;SDS011;5251;52.112;8.606;2023-04-27T00:28:55;5.75;;;3.90;;
10410;SDS011;5251;52.112;8.606;2023-04-27T00:31:20;4.90;;;3.42;;
10410;SDS011;5251;52.112;8.606;2023-04-27T00:33:46;5.57;;;3.97;;
10410;SDS011;5251;52.112;8.606;2023-04-27T00:36:11;7.90;;;3.45;;
10410;SDS011;5251;52.112;8.606;2023-04-27T00:38:37;4.05;;;3.28;;
10410;SDS011;5251;52.112;8.606;2023-04-27T00:41:03;5.82;;;3.15;;
10410;SDS011;5251;52.112;8.606;2023-04-27T00:43:30;7.22;;;3.83;;
10410;SDS011;5251;52.112;8.606;2023-04-27T00:45:56;7.25;;;3.97;;
10410;SDS011;5251;52.112;8.606;2023-04-27T00:48:22;5.32;;;3.33;;
10410;SDS011;5251;52.112;8.606;2023-04-27T00:50:48;5.47;;;3.15;;
10410;SDS011;5251;52.112;8.606;2023-04-27T00:53:14;4.53;;;3.25;;
10410;SDS011;5251;52.112;8.606;2023-04-27T00:55:40;4.20;;;3.30;;
10410;SDS011;5251;52.112;8.606;2023-04-27T00:58:05;6.53;;;3.47;;
10410;SDS011;5251;52.112;8.606;2023-04-27T01:00:34;6.40;;;3.53;;
10410;SDS011;5251;52.112;8.606;2023-04-27T01:03:00;4.82;;;3.30;;
10410;SDS011;5251;52.112;8.606;2023-04-27T01:05:26;4.32;;;3.35;;
10410;SDS011;5251;52.112;8.606;2023-04-27T01:07:52;5.72;;;3.40;;
10410;SDS011;5251;52.112;8.606;2023-04-27T01:10:19;6.05;;;3.55;;
10410;SDS011;5251;52.112;8.606;2023-04-27T01:12:45;4.40;;;3.17;;
10410;SDS011;5251;52.112;8.606;2023-04-27T01:15:10;4.32;;;3.17;;
10410;SDS011;5251;52.112;8.606;2023-04-27T01:17:36;4.22;;;3.55;;
10410;SDS011;5251;52.112;8.606;2023-04-27T01:20:02;3.88;;;3.30;;
10410;SDS011;5251;52.112;8.606;2023-04-27T01:22:30;4.70;;;3.50;;
10410;SDS011;5251;52.112;8.606;2023-04-27T01:24:56;6.25;;;3.20;;
10410;SDS011;5251;52.112;8.606;2023-04-27T01:27:22;5.07;;;3.33;;
10410;SDS011;5251;52.112;8.606;2023-04-27T01:29:47;6.82;;;3.70;;
10410;SDS011;5251;52.112;8.606;2023-04-27T01:32:13;6.07;;;3.33;;
10410;SDS011;5251;52.112;8.606;2023-04-27T01:34:39;5.00;;;3.50;;
10410;SDS011;5251;52.112;8.606;2023-04-27T01:37:04;5.50;;;3.55;;
10410;SDS011;5251;52.112;8.606;2023-04-27T01:39:30;7.10;;;3.50;;
10410;SDS011;5251;52.112;8.606;2023-04-27T01:41:56;6.18;;;3.47;;
10410;SDS011;5251;52.112;8.606;2023-04-27T01:44:21;4.75;;;3.40;;
10410;SDS011;5251;52.112;8.606;2023-04-27T01:46:48;7.57;;;3.40;;
10410;SDS011;5251;52.112;8.606;2023-04-27T01:49:14;5.07;;;3.45;;
10410;SDS011;5251;52.112;8.606;2023-04-27T01:51:39;4.13;;;3.20;;
10410;SDS011;5251;52.112;8.606;2023-04-27T01:54:05;5.53;;;3.35;;
10410;SDS011;5251;52.112;8.606;2023-04-27T01:56:31;4.18;;;3.17;;
10410;SDS011;5251;52.112;8.606;2023-04-27T01:58:56;5.80;;;3.30;;
10410;SDS011;5251;52.112;8.606;2023-04-27T02:01:22;4.97;;;3.20;;
10410;SDS011;5251;52.112;8.606;2023-04-27T02:03:47;5.85;;;3.60;;
10410;SDS011;5251;52.112;8.606;2023-04-27T02:06:13;4.45;;;3.17;;
10410;SDS011;5251;52.112;8.606;2023-04-27T02:08:38;6.70;;;3.75;;
10410;SDS011;5251;52.112;8.606;2023-04-27T02:11:04;5.47;;;3.63;;
10410;SDS011;5251;52.112;8.606;2023-04-27T02:13:30;7.00;;;3.20;;
10410;SDS011;5251;52.112;8.606;2023-04-27T02:15:55;4.97;;;3.53;;
10410;SDS011;5251;52.112;8.606;2023-04-27T02:18:21;3.78;;;3.08;;
10410;SDS011;5251;52.112;8.606;2023-04-27T02:20:47;5.85;;;3.88;;
10410;SDS011;5251;52.112;8.606;2023-04-27T02:23:12;4.18;;;3.30;;
10410;SDS011;5251;52.112;8.606;2023-04-27T02:25:38;6.07;;;3.63;;
10410;SDS011;5251;52.112;8.606;2023-04-27T02:28:06;7.72;;;3.85;;
10410;SDS011;5251;52.112;8.606;2023-04-27T02:30:32;5.63;;;3.30;;
10410;SDS011;5251;52.112;8.606;2023-04-27T02:32:58;5.07;;;3.67;;
10410;SDS011;5251;52.112;8.606;2023-04-27T02:35:24;5.90;;;3.78;;
10410;SDS011;5251;52.112;8.606;2023-04-27T02:37:50;6.85;;;3.60;;
10410;SDS011;5251;52.112;8.606;2023-04-27T02:40:16;4.40;;;3.03;;
10410;SDS011;5251;52.112;8.606;2023-04-27T02:42:42;5.25;;;3.25;;
10410;SDS011;5251;52.112;8.606;2023-04-27T02:45:07;6.40;;;3.63;;
10410;SDS011;5251;52.112;8.606;2023-04-27T02:47:33;5.70;;;3.10;;
10410;SDS011;5251;52.112;8.606;2023-04-27T02:49:59;4.85;;;3.10;;
10410;SDS011;5251;52.112;8.606;2023-04-27T02:52:25;4.53;;;3.40;;
10410;SDS011;5251;52.112;8.606;2023-04-27T02:54:51;5.93;;;3.80;;
10410;SDS011;5251;52.112;8.606;2023-04-27T02:57:17;4.15;;;3.03;;
10410;SDS011;5251;52.112;8.606;2023-04-27T02:59:42;7.70;;;3.78;;
10410;SDS011;5251;52.112;8.606;2023-04-27T03:02:08;6.00;;;3.30;;
10410;SDS011;5251;52.112;8.606;2023-04-27T03:04:34;6.28;;;3.38;;
10410;SDS011;5251;52.112;8.606;2023-04-27T03:07:01;5.35;;;3.53;;
10410;SDS011;5251;52.112;8.606;2023-04-27T03:09:27;5.13;;;3.00;;
10410;SDS011;5251;52.112;8.606;2023-04-27T03:11:53;5.95;;;3.33;;
10410;SDS011;5251;52.112;8.606;2023-04-27T03:14:18;4.28;;;3.25;;
10410;SDS011;5251;52.112;8.606;2023-04-27T03:16:44;5.72;;;3.60;;
10410;SDS011;5251;52.112;8.606;2023-04-27T03:19:10;5.90;;;3.28;;
10410;SDS011;5251;52.112;8.606;2023-04-27T03:21:35;4.45;;;3.28;;
10410;SDS011;5251;52.112;8.606;2023-04-27T03:24:01;6.30;;;3.22;;
10410;SDS011;5251;52.112;8.606;2023-04-27T03:26:27;5.50;;;3.60;;
10410;SDS011;5251;52.112;8.606;2023-04-27T03:28:52;3.78;;;3.10;;
10410;SDS011;5251;52.112;8.606;2023-04-27T03:31:18;4.45;;;3.42;;
10410;SDS011;5251;52.112;8.606;2023-04-27T03:33:44;5.93;;;3.20;;
10410;SDS011;5251;52.112;8.606;2023-04-27T03:36:09;4.80;;;3.40;;
10410;SDS011;5251;52.112;8.606;2023-04-27T03:38:35;4.53;;;2.80;;
10410;SDS011;5251;52.112;8.606;2023-04-27T03:41:01;4.78;;;3.50;;
10410;SDS011;5251;52.112;8.606;2023-04-27T03:43:27;4.72;;;3.10;;
10410;SDS011;5251;52.112;8.606;2023-04-27T03:45:52;6.50;;;3.00;;
10410;SDS011;5251;52.112;8.606;2023-04-27T03:48:19;4.97;;;3.25;;
10410;SDS011;5251;52.112;8.606;2023-04-27T03:50:44;4.78;;;3.35;;
10410;SDS011;5251;52.112;8.606;2023-04-27T03:53:11;9.07;;;3.40;;
10410;SDS011;5251;52.112;8.606;2023-04-27T03:55:37;3.72;;;2.80;;
10410;SDS011;5251;52.112;8.606;2023-04-27T03:58:04;3.70;;;3.10;;
10410;SDS011;5251;52.112;8.606;2023-04-27T04:00:30;5.18;;;3.30;;
10410;SDS011;5251;52.112;8.606;2023-04-27T04:02:55;7.47;;;3.60;;
10410;SDS011;5251;52.112;8.606;2023-04-27T04:05:21;5.07;;;2.88;;
10410;SDS011;5251;52.112;8.606;2023-04-27T04:07:47;4.35;;;2.90;;
10410;SDS011;5251;52.112;8.606;2023-04-27T04:10:12;5.00;;;3.28;;
10410;SDS011;5251;52.112;8.606;2023-04-27T04:12:38;4.15;;;2.78;;
10410;SDS011;5251;52.112;8.606;2023-04-27T04:15:04;6.38;;;3.30;;
10410;SDS011;5251;52.112;8.606;2023-04-27T04:17:30;3.35;;;2.88;;
10410;SDS011;5251;52.112;8.606;2023-04-27T04:19:57;7.57;;;3.47;;
10410;SDS011;5251;52.112;8.606;2023-04-27T04:22:23;4.47;;;3.33;;
10410;SDS011;5251;52.112;8.606;2023-04-27T04:24:49;3.83;;;3.00;;
10410;SDS011;5251;52.112;8.606;2023-04-27T04:27:15;5.80;;;3.40;;
10410;SDS011;5251;52.112;8.606;2023-04-27T04:29:41;5.20;;;3.10;;
10410;SDS011;5251;52.112;8.606;2023-04-27T04:32:06;3.88;;;3.15;;
10410;SDS011;5251;52.112;8.606;2023-04-27T04:34:33;5.55;;;3.17;;
10410;SDS011;5251;52.112;8.606;2023-04-27T04:36:59;5.10;;;3.13;;
10410;SDS011;5251;52.112;8.606;2023-04-27T04:39:29;6.40;;;3.35;;
10410;SDS011;5251;52.112;8.606;2023-04-27T04:41:55;5.53;;;3.70;;
10410;SDS011;5251;52.112;8.606;2023-04-27T04:44:21;6.88;;;3.40;;
10410;SDS011;5251;52.112;8.606;2023-04-27T04:46:47;6.38;;;3.92;;
10410;SDS011;5251;52.112;8.606;2023-04-27T04:49:12;6.20;;;3.55;;
10410;SDS011;5251;52.112;8.606;2023-04-27T04:51:41;9.80;;;4.13;;
10410;SDS011;5251;52.112;8.606;2023-04-27T04:54:08;5.93;;;3.65;;
10410;SDS011;5251;52.112;8.606;2023-04-27T04:56:34;6.25;;;3.90;;
10410;SDS011;5251;52.112;8.606;2023-04-27T04:59:00;4.53;;;3.55;;
10410;SDS011;5251;52.112;8.606;2023-04-27T05:01:26;5.40;;;3.90;;
10410;SDS011;5251;52.112;8.606;2023-04-27T05:03:51;5.28;;;4.00;;
10410;SDS011;5251;52.112;8.606;2023-04-27T05:06:17;7.80;;;3.53;;
10410;SDS011;5251;52.112;8.606;2023-04-27T05:08:43;5.22;;;3.70;;
10410;SDS011;5251;52.112;8.606;2023-04-27T05:11:08;5.22;;;3.40;;
10410;SDS011;5251;52.112;8.606;2023-04-27T05:13:34;7.57;;;3.85;;
10410;SDS011;5251;52.112;8.606;2023-04-27T05:16:06;5.22;;;3.47;;
10410;SDS011;5251;52.112;8.606;2023-04-27T05:18:32;6.53;;;3.70;;
10410;SDS011;5251;52.112;8.606;2023-04-27T05:20:58;6.50;;;3.58;;
10410;SDS011;5251;52.112;8.606;2023-04-27T05:23:24;6.40;;;4.40;;
10410;SDS011;5251;52.112;8.606;2023-04-27T05:25:50;6.63;;;3.90;;
10410;SDS011;5251;52.112;8.606;2023-04-27T05:28:15;7.07;;;4.30;;
10410;SDS011;5251;52.112;8.606;2023-04-27T05:30:41;6.80;;;3.63;;
10410;SDS011;5251;52.112;8.606;2023-04-27T05:33:07;5.32;;;3.63;;
10410;SDS011;5251;52.112;8.606;2023-04-27T05:35:33;5.72;;;3.70;;
10410;SDS011;5251;52.112;8.606;2023-04-27T05:37:59;6.20;;;3.50;;
10410;SDS011;5251;52.112;8.606;2023-04-27T05:40:25;7.53;;;3.75;;
10410;SDS011;5251;52.112;8.606;2023-04-27T05:42:50;7.63;;;4.55;;
10410;SDS011;5251;52.112;8.606;2023-04-27T05:45:16;6.18;;;3.65;;
10410;SDS011;5251;52.112;8.606;2023-04-27T05:47:42;6.03;;;4.13;;
10410;SDS011;5251;52.112;8.606;2023-04-27T05:50:08;5.78;;;4.00;;
10410;SDS011;5251;52.112;8.606;2023-04-27T05:52:34;7.13;;;4.18;;
10410;SDS011;5251;52.112;8.606;2023-04-27T05:55:00;6.30;;;4.18;;
10410;SDS011;5251;52.112;8.606;2023-04-27T05:57:25;6.32;;;4.10;;
10410;SDS011;5251;52.112;8.606;2023-04-27T05:59:51;5.32;;;3.80;;
10410;SDS011;5251;52.112;8.606;2023-04-27T06:02:17;5.85;;;3.80;;
10410;SDS011;5251;52.112;8.606;2023-04-27T06:04:44;4.35;;;3.35;;
10410;SDS011;5251;52.112;8.606;2023-04-27T06:07:11;7.45;;;3.53;;
10410;SDS011;5251;52.112;8.606;2023-04-27T06:09:37;5.80;;;4.00;;
10410;SDS011;5251;52.112;8.606;2023-04-27T06:12:04;5.00;;;3.47;;
10410;SDS011;5251;52.112;8.606;2023-04-27T06:14:30;4.68;;;3.50;;
10410;SDS011;5251;52.112;8.606;2023-04-27T06:16:56;4.90;;;3.33;;
10410;SDS011;5251;52.112;8.606;2023-04-27T06:19:22;4.80;;;2.88;;
10410;SDS011;5251;52.112;8.606;2023-04-27T06:21:49;4.05;;;2.88;;
10410;SDS011;5251;52.112;8.606;2023-04-27T06:24:15;4.50;;;3.00;;
10410;SDS011;5251;52.112;8.606;2023-04-27T06:26:41;3.50;;;2.58;;
10410;SDS011;5251;52.112;8.606;2023-04-27T06:29:06;4.28;;;2.20;;
10410;SDS011;5251;52.112;8.606;2023-04-27T06:31:34;3.70;;;2.58;;
10410;SDS011;5251;52.112;8.606;2023-04-27T06:34:00;5.07;;;2.92;;
10410;SDS011;5251;52.112;8.606;2023-04-27T06:36:26;4.85;;;2.70;;
10410;SDS011;5251;52.112;8.606;2023-04-27T06:38:52;6.13;;;2.80;;
10410;SDS011;5251;52.112;8.606;2023-04-27T06:41:22;4.80;;;2.70;;
10410;SDS011;5251;52.112;8.606;2023-04-27T06:43:51;4.28;;;2.78;;
10410;SDS011;5251;52.112;8.606;2023-04-27T06:46:17;3.33;;;2.20;;
10410;SDS011;5251;52.112;8.606;2023-04-27T06:48:43;5.25;;;2.97;;
10410;SDS011;5251;52.112;8.606;2023-04-27T06:51:09;4.70;;;2.67;;
10410;SDS011;5251;52.112;8.606;2023-04-27T06:53:34;3.72;;;2.92;;
10410;SDS011;5251;52.112;8.606;2023-04-27T06:56:00;5.68;;;2.78;;
10410;SDS011;5251;52.112;8.606;2023-04-27T06:58:26;3.72;;;2.55;;
10410;SDS011;5251;52.112;8.606;2023-04-27T07:00:52;9.75;;;3.53;;
10410;SDS011;5251;52.112;8.606;2023-04-27T07:03:17;5.35;;;2.88;;
10410;SDS011;5251;52.112;8.606;2023-04-27T07:05:44;6.05;;;3.15;;
10410;SDS011;5251;52.112;8.606;2023-04-27T07:08:10;3.97;;;2.65;;
10410;SDS011;5251;52.112;8.606;2023-04-27T07:10:36;4.88;;;2.63;;
10410;SDS011;5251;52.112;8.606;2023-04-27T07:13:02;4.22;;;2.42;;
10410;SDS011;5251;52.112;8.606;2023-04-27T07:15:29;5.18;;;2.42;;
10410;SDS011;5251;52.112;8.606;2023-04-27T07:17:55;5.47;;;2.70;;
10410;SDS011;5251;52.112;8.606;2023-04-27T07:20:21;5.55;;;2.55;;
10410;SDS011;5251;52.112;8.606;2023-04-27T07:22:46;4.78;;;2.92;;
10410;SDS011;5251;52.112;8.606;2023-04-27T07:25:12;3.90;;;2.55;;
10410;SDS011;5251;52.112;8.606;2023-04-27T07:27:38;5.50;;;2.67;;
10410;SDS011;5251;52.112;8.606;2023-04-27T07:30:04;5.32;;;2.40;;
10410;SDS011;5251;52.112;8.606;2023-04-27T07:32:32;3.70;;;2.15;;
10410;SDS011;5251;52.112;8.606;2023-04-27T07:34:58;3.40;;;1.92;;
10410;SDS011;5251;52.112;8.606;2023-04-27T07:37:24;5.10;;;1.60;;
10410;SDS011;5251;52.112;8.606;2023-04-27T07:39:50;3.60;;;2.38;;
10410;SDS011;5251;52.112;8.606;2023-04-27T07:42:17;5.05;;;2.55;;
10410;SDS011;5251;52.112;8.606;2023-04-27T07:44:43;5.45;;;2.50;;
10410;SDS011;5251;52.112;8.606;2023-04-27T07:47:08;4.05;;;2.15;;
10410;SDS011;5251;52.112;8.606;2023-04-27T07:49:35;6.43;;;2.78;;
10410;SDS011;5251;52.112;8.606;2023-04-27T07:52:01;5.03;;;2.60;;
10410;SDS011;5251;52.112;8.606;2023-04-27T07:54:28;3.67;;;2.58;;
10410;SDS011;5251;52.112;8.606;2023-04-27T07:56:54;3.72;;;2.60;;
10410;SDS011;5251;52.112;8.606;2023-04-27T07:59:19;4.20;;;2.47;;
10410;SDS011;5251;52.112;8.606;2023-04-27T08:01:45;4.93;;;2.45;;
10410;SDS011;5251;52.112;8.606;2023-04-27T08:04:11;4.18;;;2.50;;
10410;SDS011;5251;52.112;8.606;2023-04-27T08:06:37;4.45;;;2.85;;
10410;SDS011;5251;52.112;8.606;2023-04-27T08:09:02;3.33;;;2.47;;
10410;SDS011;5251;52.112;8.606;2023-04-27T08:11:29;7.10;;;2.75;;
10410;SDS011;5251;52.112;8.606;2023-04-27T08:13:54;5.30;;;2.50;;
10410;SDS011;5251;52.112;8.606;2023-04-27T08:16:20;2.92;;;2.30;;
10410;SDS011;5251;52.112;8.606;2023-04-27T08:18:45;4.97;;;2.70;;
10410;SDS011;5251;52.112;8.606;2023-04-27T08:21:11;4.55;;;2.42;;
10410;SDS011;5251;52.112;8.606;2023-04-27T08:23:36;3.67;;;2.30;;
10410;SDS011;5251;52.112;8.606;2023-04-27T08:26:02;3.65;;;2.40;;
10410;SDS011;5251;52.112;8.606;2023-04-27T08:28:28;4.20;;;2.47;;
10410;SDS011;5251;52.112;8.606;2023-04-27T08:30:54;4.45;;;2.50;;
10410;SDS011;5251;52.112;8.606;2023-04-27T08:33:20;3.53;;;2.15;;
10410;SDS011;5251;52.112;8.606;2023-04-27T08:35:45;2.47;;;2.08;;
10410;SDS011;5251;52.112;8.606;2023-04-27T08:38:11;8.23;;;2.50;;
10410;SDS011;5251;52.112;8.606;2023-04-27T08:40:43;3.03;;;2.00;;
10410;SDS011;5251;52.112;8.606;2023-04-27T08:43:08;4.00;;;2.30;;
10410;SDS011;5251;52.112;8.606;2023-04-27T08:45:34;2.13;;;1.73;;
10410;SDS011;5251;52.112;8.606;2023-04-27T08:48:00;2.70;;;1.90;;
10410;SDS011;5251;52.112;8.606;2023-04-27T08:50:25;2.15;;;1.90;;
10410;SDS011;5251;52.112;8.606;2023-04-27T08:52:51;3.13;;;2.00;;
10410;SDS011;5251;52.112;8.606;2023-04-27T08:55:17;5.38;;;2.10;;
10410;SDS011;5251;52.112;8.606;2023-04-27T08:57:53;4.38;;;2.03;;
10410;SDS011;5251;52.112;8.606;2023-04-27T09:00:25;3.58;;;2.20;;
10410;SDS011;5251;52.112;8.606;2023-04-27T09:02:51;2.47;;;1.98;;
10410;SDS011;5251;52.112;8.606;2023-04-27T09:05:25;2.40;;;2.20;;
10410;SDS011;5251;52.112;8.606;2023-04-27T09:08:09;3.05;;;2.25;;
10410;SDS011;5251;52.112;8.606;2023-04-27T09:10:47;3.20;;;1.90;;
10410;SDS011;5251;52.112;8.606;2023-04-27T09:13:15;3.05;;;2.13;;
10410;SDS011;5251;52.112;8.606;2023-04-27T09:18:11;3.85;;;2.10;;
10410;SDS011;5251;52.112;8.606;2023-04-27T09:23:30;2.25;;;2.05;;
10410;SDS011;5251;52.112;8.606;2023-04-27T09:25:58;3.67;;;2.60;;
10410;SDS011;5251;52.112;8.606;2023-04-27T09:28:25;3.70;;;2.30;;
10410;SDS011;5251;52.112;8.606;2023-04-27T09:30:55;5.03;;;2.20;;
10410;SDS011;5251;52.112;8.606;2023-04-27T09:33:23;3.97;;;2.60;;
10410;SDS011;5251;52.112;8.606;2023-04-27T09:35:53;3.67;;;2.10;;
10410;SDS011;5251;52.112;8.606;2023-04-27T09:38:20;3.10;;;2.05;;
10410;SDS011;5251;52.112;8.606;2023-04-27T09:40:47;4.47;;;2.13;;
10410;SDS011;5251;52.112;8.606;2023-04-27T09:43:14;4.47;;;2.22;;
10410;SDS011;5251;52.112;8.606;2023-04-27T09:45:40;4.20;;;2.00;;
10410;SDS011;5251;52.112;8.606;2023-04-27T09:48:06;2.90;;;2.00;;
10410;SDS011;5251;52.112;8.606;2023-04-27T09:50:33;4.65;;;2.13;;
10410;SDS011;5251;52.112;8.606;2023-04-27T09:53:01;2.97;;;1.83;;
10410;SDS011;5251;52.112;8.606;2023-04-27T09:55:29;2.42;;;2.20;;
10410;SDS011;5251;52.112;8.606;2023-04-27T10:01:27;3.08;;;1.88;;
10410;SDS011;5251;52.112;8.606;2023-04-27T10:04:17;2.40;;;2.13;;
10410;SDS011;5251;52.112;8.606;2023-04-27T10:09:24;4.25;;;2.28;;
10410;SDS011;5251;52.112;8.606;2023-04-27T10:11:51;2.92;;;2.00;;
10410;SDS011;5251;52.112;8.606;2023-04-27T10:14:18;4.55;;;2.00;;
10410;SDS011;5251;52.112;8.606;2023-04-27T10:16:50;2.28;;;2.08;;
10410;SDS011;5251;52.112;8.606;2023-04-27T10:19:18;2.95;;;2.15;;
10410;SDS011;5251;52.112;8.606;2023-04-27T10:21:55;2.80;;;2.08;;
10410;SDS011;5251;52.112;8.606;2023-04-27T10:24:31;3.63;;;2.35;;
10410;SDS011;5251;52.112;8.606;2023-04-27T10:27:00;2.53;;;1.80;;
10410;SDS011;5251;52.112;8.606;2023-04-27T10:29:34;2.63;;;2.25;;
10410;SDS011;5251;52.112;8.606;2023-04-27T10:32:05;5.22;;;2.35;;
10410;SDS011;5251;52.112;8.606;2023-04-27T10:34:33;4.72;;;2.10;;
10410;SDS011;5251;52.112;8.606;2023-04-27T10:37:04;2.63;;;1.98;;
10410;SDS011;5251;52.112;8.606;2023-04-27T10:39:33;3.50;;;2.30;;
10410;SDS011;5251;52.112;8.606;2023-04-27T10:42:01;2.58;;;2.00;;
10410;SDS011;5251;52.112;8.606;2023-04-27T10:44:28;3.55;;;2.35;;
10410;SDS011;5251;52.112;8.606;2023-04-27T10:46:56;4.55;;;2.40;;
10410;SDS011;5251;52.112;8.606;2023-04-27T10:49:25;3.60;;;2.03;;
10410;SDS011;5251;52.112;8.606;2023-04-27T10:51:51;3.75;;;2.20;;
10410;SDS011;5251;52.112;8.606;2023-04-27T10:54:17;3.65;;;2.40;;
10410;SDS011;5251;52.112;8.606;2023-04-27T10:56:43;3.45;;;2.45;;
10410;SDS011;5251;52.112;8.606;2023-04-27T10:59:09;4.25;;;2.30;;
10410;SDS011;5251;52.112;8.606;2023-04-27T11:01:35;3.67;;;2.30;;
10410;SDS011;5251;52.112;8.606;2023-04-27T11:04:01;3.50;;;2.47;;
10410;SDS011;5251;52.112;8.606;2023-04-27T11:06:30;4.03;;;2.70;;
10410;SDS011;5251;52.112;8.606;2023-04-27T11:08:58;8.20;;;2.58;;
10410;SDS011;5251;52.112;8.606;2023-04-27T11:11:25;3.33;;;2.50;;
10410;SDS011;5251;52.112;8.606;2023-04-27T11:13:52;4.25;;;2.35;;
10410;SDS011;5251;52.112;8.606;2023-04-27T11:16:19;3.05;;;2.17;;
10410;SDS011;5251;52.112;8.606;2023-04-27T11:18:45;4.13;;;2.35;;
10410;SDS011;5251;52.112;8.606;2023-04-27T11:21:11;3.90;;;2.22;;
10410;SDS011;5251;52.112;8.606;2023-04-27T11:23:39;2.38;;;2.17;;
10410;SDS011;5251;52.112;8.606;2023-04-27T11:28:44;4.63;;;2.88;;
10410;SDS011;5251;52.112;8.606;2023-04-27T11:31:21;3.00;;;2.65;;
10410;SDS011;5251;52.112;8.606;2023-04-27T11:33:49;2.70;;;2.45;;
10410;SDS011;5251;52.112;8.606;2023-04-27T11:36:16;2.63;;;2.42;;
10410;SDS011;5251;52.112;8.606;2023-04-27T11:38:43;3.42;;;2.47;;
10410;SDS011;5251;52.112;8.606;2023-04-27T11:41:09;4.32;;;2.80;;
10410;SDS011;5251;52.112;8.606;2023-04-27T11:43:36;6.03;;;2.85;;
10410;SDS011;5251;52.112;8.606;2023-04-27T11:46:06;2.63;;;2.38;;
10410;SDS011;5251;52.112;8.606;2023-04-27T11:48:34;3.38;;;2.72;;
10410;SDS011;5251;52.112;8.606;2023-04-27T11:51:04;3.10;;;2.60;;
10410;SDS011;5251;52.112;8.606;2023-04-27T11:55:58;4.32;;;3.25;;
10410;SDS011;5251;52.112;8.606;2023-04-27T11:58:31;2.92;;;2.65;;
10410;SDS011;5251;52.112;8.606;2023-04-27T12:01:00;4.57;;;2.80;;
10410;SDS011;5251;52.112;8.606;2023-04-27T12:03:27;3.70;;;2.72;;
10410;SDS011;5251;52.112;8.606;2023-04-27T12:05:53;4.25;;;2.58;;
10410;SDS011;5251;52.112;8.606;2023-04-27T12:08:19;3.38;;;2.78;;
10410;SDS011;5251;52.112;8.606;2023-04-27T12:10:45;2.95;;;2.63;;
10410;SDS011;5251;52.112;8.606;2023-04-27T12:13:11;3.67;;;2.60;;
10410;SDS011;5251;52.112;8.606;2023-04-27T12:15:38;3.97;;;3.00;;
10410;SDS011;5251;52.112;8.606;2023-04-27T12:18:04;4.93;;;3.03;;
10410;SDS011;5251;52.112;8.606;2023-04-27T12:20:30;4.05;;;2.83;;
10410;SDS011;5251;52.112;8.606;2023-04-27T12:22:56;4.78;;;3.33;;
10410;SDS011;5251;52.112;8.606;2023-04-27T12:25:22;3.30;;;2.60;;
10410;SDS011;5251;52.112;8.606;2023-04-27T12:27:47;3.20;;;2.90;;
10410;SDS011;5251;52.112;8.606;2023-04-27T12:30:14;4.65;;;2.92;;
10410;SDS011;5251;52.112;8.606;2023-04-27T12:32:40;5.03;;;3.08;;
10410;SDS011;5251;52.112;8.606;2023-04-27T12:35:08;3.60;;;2.70;;
10410;SDS011;5251;52.112;8.606;2023-04-27T12:37:34;3.38;;;3.00;;
10410;SDS011;5251;52.112;8.606;2023-04-27T12:40:00;3.70;;;3.17;;
10410;SDS011;5251;52.112;8.606;2023-04-27T12:42:29;3.33;;;2.85;;
10410;SDS011;5251;52.112;8.606;2023-04-27T12:44:55;4.45;;;3.17;;
10410;SDS011;5251;52.112;8.606;2023-04-27T12:47:21;3.60;;;3.17;;
10410;SDS011;5251;52.112;8.606;2023-04-27T12:49:46;3.33;;;3.03;;
10410;SDS011;5251;52.112;8.606;2023-04-27T12:52:12;3.78;;;3.00;;
10410;SDS011;5251;52.112;8.606;2023-04-27T12:54:38;4.60;;;3.22;;
10410;SDS011;5251;52.112;8.606;2023-04-27T12:57:04;3.35;;;3.00;;
10410;SDS011;5251;52.112;8.606;2023-04-27T12:59:34;4.30;;;3.25;;
10410;SDS011;5251;52.112;8.606;2023-04-27T13:02:00;4.82;;;3.45;;
10410;SDS011;5251;52.112;8.606;2023-04-27T13:04:27;4.13;;;2.97;;
10410;SDS011;5251;52.112;8.606;2023-04-27T13:06:54;4.22;;;3.13;;
10410;SDS011;5251;52.112;8.606;2023-04-27T13:09:23;5.50;;;3.28;;
10410;SDS011;5251;52.112;8.606;2023-04-27T13:11:49;3.53;;;3.22;;
10410;SDS011;5251;52.112;8.606;2023-04-27T13:14:16;5.38;;;3.92;;
10410;SDS011;5251;52.112;8.606;2023-04-27T13:16:42;3.13;;;2.85;;
10410;SDS011;5251;52.112;8.606;2023-04-27T13:19:08;3.58;;;3.13;;
10410;SDS011;5251;52.112;8.606;2023-04-27T13:21:33;3.70;;;3.30;;
10410;SDS011;5251;52.112;8.606;2023-04-27T13:23:59;3.33;;;2.70;;
10410;SDS011;5251;52.112;8.606;2023-04-27T13:26:24;4.45;;;3.45;;
10410;SDS011;5251;52.112;8.606;2023-04-27T13:28:50;6.30;;;3.50;;
10410;SDS011;5251;52.112;8.606;2023-04-27T13:31:16;4.63;;;3.33;;
10410;SDS011;5251;52.112;8.606;2023-04-27T13:33:42;4.30;;;3.42;;
10410;SDS011;5251;52.112;8.606;2023-04-27T13:36:08;3.80;;;3.00;;
10410;SDS011;5251;52.112;8.606;2023-04-27T13:38:34;3.78;;;3.05;;
10410;SDS011;5251;52.112;8.606;2023-04-27T13:41:00;4.43;;;3.40;;
10410;SDS011;5251;52.112;8.606;2023-04-27T13:43:26;4.32;;;3.50;;
10410;SDS011;5251;52.112;8.606;2023-04-27T13:45:51;4.90;;;3.45;;
10410;SDS011;5251;52.112;8.606;2023-04-27T13:48:19;3.63;;;3.10;;
10410;SDS011;5251;52.112;8.606;2023-04-27T13:50:45;3.42;;;3.13;;
10410;SDS011;5251;52.112;8.606;2023-04-27T13:53:11;3.95;;;3.20;;
10410;SDS011;5251;52.112;8.606;2023-04-27T13:55:37;4.38;;;3.22;;
10410;SDS011;5251;52.112;8.606;2023-04-27T13:58:02;4.15;;;3.40;;
10410;SDS011;5251;52.112;8.606;2023-04-27T14:00:28;5.35;;;3.65;;
10410;SDS011;5251;52.112;8.606;2023-04-27T14:02:57;5.22;;;3.30;;
10410;SDS011;5251;52.112;8.606;2023-04-27T14:05:24;3.95;;;3.40;;
10410;SDS011;5251;52.112;8.606;2023-04-27T14:07:50;4.13;;;3.08;;
10410;SDS011;5251;52.112;8.606;2023-04-27T14:10:17;3.90;;;3.47;;
10410;SDS011;5251;52.112;8.606;2023-04-27T14:12:43;4.35;;;3.60;;
10410;SDS011;5251;52.112;8.606;2023-04-27T14:15:09;3.80;;;3.10;;
10410;SDS011;5251;52.112;8.606;2023-04-27T14:17:34;4.30;;;3.63;;
10410;SDS011;5251;52.112;8.606;2023-04-27T14:20:00;5.78;;;3.53;;
10410;SDS011;5251;52.112;8.606;2023-04-27T14:22:26;5.85;;;3.60;;
10410;SDS011;5251;52.112;8.606;2023-04-27T14:24:51;4.03;;;3.63;;
10410;SDS011;5251;52.112;8.606;2023-04-27T14:27:17;7.80;;;3.85;;
10410;SDS011;5251;52.112;8.606;2023-04-27T14:29:43;4.18;;;3.42;;
10410;SDS011;5251;52.112;8.606;2023-04-27T14:32:08;4.53;;;3.42;;
10410;SDS011;5251;52.112;8.606;2023-04-27T14:34:34;3.78;;;3.30;;
10410;SDS011;5251;52.112;8.606;2023-04-27T14:37:00;7.10;;;3.92;;
10410;SDS011;5251;52.112;8.606;2023-04-27T14:39:25;5.45;;;3.30;;
10410;SDS011;5251;52.112;8.606;2023-04-27T14:41:52;4.20;;;3.70;;
10410;SDS011;5251;52.112;8.606;2023-04-27T14:44:17;3.85;;;3.50;;
10410;SDS011;5251;52.112;8.606;2023-04-27T14:46:43;7.32;;;4.10;;
10410;SDS011;5251;52.112;8.606;2023-04-27T14:49:09;4.85;;;3.38;;
10410;SDS011;5251;52.112;8.606;2023-04-27T14:51:34;3.95;;;3.22;;
10410;SDS011;5251;52.112;8.606;2023-04-27T14:54:00;5.60;;;3.50;;
10410;SDS011;5251;52.112;8.606;2023-04-27T14:56:27;4.22;;;3.50;;
10410;SDS011;5251;52.112;8.606;2023-04-27T14:58:53;5.63;;;3.80;;
10410;SDS011;5251;52.112;8.606;2023-04-27T15:01:19;3.60;;;3.30;;
10410;SDS011;5251;52.112;8.606;2023-04-27T15:03:45;4.25;;;3.83;;
10410;SDS011;5251;52.112;8.606;2023-04-27T15:06:11;6.13;;;3.50;;
10410;SDS011;5251;52.112;8.606;2023-04-27T15:08:37;3.85;;;3.50;;
10410;SDS011;5251;52.112;8.606;2023-04-27T15:11:03;3.90;;;3.60;;
10410;SDS011;5251;52.112;8.606;2023-04-27T15:13:29;3.75;;;3.45;;